Time,TemperatureF,DewpointF,PressureIn,WindDirection,WindDirectionDegrees,WindSpeedMPH,WindSpeedGustMPH,Humidity,HourlyPrecipIn,Conditions,Clouds,dailyrainin,SoftwareType,DateUTC
2013-08-04 00:06:00,76.4,54.0,29.70,ESE,116,0.0,0.0,46,0.00,,,0.00,weatherlink.com 1.10,2013-08-04 06:06:00,
2013-08-04 00:36:00,76.8,54.0,29.70,ESE,116,0.0,0.0,45,0.00,,,0.00,weatherlink.com 1.10,2013-08-04 06:36:00,
2013-08-04 00:51:00,76.5,54.0,29.69,ESE,116,0.0,0.0,45,0.00,,,0.00,weatherlink.com 1.10,2013-08-04 06:51:00,
2013-08-04 01:21:00,75.2,55.0,29.69,ESE,116,0.0,0.0,49,0.00,,,0.00,weatherlink.com 1.10,2013-08-04 07:21:00,
2013-08-04 01:36:00,74.9,54.0,29.69,South,189,0.0,3.0,49,0.00,,,0.00,weatherlink.com 1.10,2013-08-04 07:36:00,
2013-08-04 01:51:00,74.4,54.0,29.70,East,82,0.0,2.0,50,0.00,,,0.00,weatherlink.com 1.10,2013-08-04 07:51:00,
2013-08-04 02:06:00,74.7,53.0,29.70,ESE,106,0.0,0.0,47,0.00,,,0.00,weatherlink.com 1.10,2013-08-04 08:06:00,
2013-08-04 02:21:00,75.6,56.0,29.70,East,92,9.0,11.0,50,0.00,,,0.00,weatherlink.com 1.10,2013-08-04 08:21:00,
2013-08-04 02:36:00,74.6,56.0,29.70,East,88,2.0,10.0,53,0.00,,,0.00,weatherlink.com 1.10,2013-08-04 08:36:00,
2013-08-04 02:51:00,74.5,57.0,29.70,East,98,9.0,15.0,54,0.00,,,0.00,weatherlink.com 1.10,2013-08-04 08:51:00,
2013-08-04 03:06:00,74.4,57.0,29.69,East,93,10.0,17.0,54,0.00,,,0.00,weatherlink.com 1.10,2013-08-04 09:06:00,
2013-08-04 03:21:00,73.7,57.0,29.70,NE,34,3.0,19.0,57,0.00,,,0.00,weatherlink.com 1.10,2013-08-04 09:21:00,
2013-08-04 03:36:00,73.3,57.0,29.70,NE,53,3.0,16.0,58,0.00,,,0.00,weatherlink.com 1.10,2013-08-04 09:36:00,
2013-08-04 03:51:00,73.3,57.0,29.69,NNE,32,13.0,15.0,58,0.00,,,0.00,weatherlink.com 1.10,2013-08-04 09:51:00,
2013-08-04 04:06:00,72.9,58.0,29.68,NE,40,7.0,17.0,59,0.00,,,0.00,weatherlink.com 1.10,2013-08-04 10:06:00,
2013-08-04 04:37:00,73.0,57.0,29.68,East,86,7.0,16.0,58,0.00,,,0.00,weatherlink.com 1.10,2013-08-04 10:37:00,
2013-08-04 04:52:00,72.8,57.0,29.68,NE,48,2.0,14.0,58,0.00,,,0.00,weatherlink.com 1.10,2013-08-04 10:52:00,
2013-08-04 05:07:00,72.6,57.0,29.68,ENE,68,2.0,12.0,58,0.00,,,0.00,weatherlink.com 1.10,2013-08-04 11:07:00,
2013-08-04 05:22:00,72.7,57.0,29.68,NE,55,0.0,12.0,58,0.00,,,0.00,weatherlink.com 1.10,2013-08-04 11:22:00,
2013-08-04 05:37:00,72.6,57.0,29.68,NE,41,0.0,12.0,58,0.00,,,0.00,weatherlink.com 1.10,2013-08-04 11:37:00,
2013-08-04 05:52:00,72.5,57.0,29.69,ENE,61,1.0,11.0,58,0.00,,,0.00,weatherlink.com 1.10,2013-08-04 11:52:00,
2013-08-04 06:07:00,72.5,57.0,29.69,NE,42,1.0,10.0,58,0.00,,,0.00,weatherlink.com 1.10,2013-08-04 12:07:00,
2013-08-04 06:22:00,72.6,57.0,29.70,ENE,58,0.0,6.0,58,0.00,,,0.00,weatherlink.com 1.10,2013-08-04 12:22:00,
2013-08-04 06:37:00,72.2,57.0,29.70,NE,45,0.0,4.0,59,0.00,,,0.00,weatherlink.com 1.10,2013-08-04 12:37:00,
2013-08-04 06:52:00,71.5,57.0,29.70,NW,326,0.0,1.0,61,0.00,,,0.00,weatherlink.com 1.10,2013-08-04 12:52:00,
2013-08-04 07:07:00,71.3,57.0,29.71,NW,307,0.0,0.0,62,0.00,,,0.00,weatherlink.com 1.10,2013-08-04 13:07:00,
2013-08-04 07:22:00,71.9,58.0,29.71,NE,44,0.0,0.0,62,0.00,,,0.00,weatherlink.com 1.10,2013-08-04 13:22:00,
2013-08-04 07:37:00,74.5,58.0,29.71,SSE,151,0.0,4.0,56,0.00,,,0.00,weatherlink.com 1.10,2013-08-04 13:37:00,
2013-08-04 07:52:00,75.8,58.0,29.72,East,97,0.0,8.0,54,0.00,,,0.00,weatherlink.com 1.10,2013-08-04 13:52:00,
2013-08-04 08:07:00,76.3,58.0,29.72,East,99,0.0,8.0,53,0.00,,,0.00,weatherlink.com 1.10,2013-08-04 14:07:00,
2013-08-04 08:22:00,77.3,58.0,29.73,ENE,60,2.0,7.0,52,0.00,,,0.00,weatherlink.com 1.10,2013-08-04 14:22:00,
2013-08-04 08:37:00,78.6,58.0,29.73,NE,53,0.0,3.0,50,0.00,,,0.00,weatherlink.com 1.10,2013-08-04 14:37:00,
2013-08-04 08:52:00,79.6,58.0,29.73,SSW,197,0.0,2.0,48,0.00,,,0.00,weatherlink.com 1.10,2013-08-04 14:52:00,
2013-08-04 09:07:00,79.0,58.0,29.72,South,190,0.0,2.0,49,0.00,,,0.00,weatherlink.com 1.10,2013-08-04 15:07:00,
2013-08-04 11:49:00,87.3,56.0,29.69,SSW,206,1.0,7.0,35,0.00,,,0.00,weatherlink.com 1.10,2013-08-04 17:49:00,
2013-08-04 12:08:00,88.3,57.0,29.68,SSW,210,1.0,6.0,34,0.00,,,0.00,weatherlink.com 1.10,2013-08-04 18:08:00,
2013-08-04 12:22:00,89.0,57.0,29.67,SE,140,1.0,7.0,34,0.00,,,0.00,weatherlink.com 1.10,2013-08-04 18:22:00,
2013-08-04 12:38:00,89.9,57.0,29.66,South,191,2.0,8.0,33,0.00,,,0.00,weatherlink.com 1.10,2013-08-04 18:38:00,
2013-08-04 12:53:00,90.4,57.0,29.66,SW,231,6.0,8.0,32,0.00,,,0.00,weatherlink.com 1.10,2013-08-04 18:53:00,
2013-08-04 13:08:00,90.7,56.0,29.65,SSE,149,0.0,6.0,31,0.00,,,0.00,weatherlink.com 1.10,2013-08-04 19:08:00,
2013-08-04 13:23:00,91.8,55.0,29.64,South,186,0.0,9.0,29,0.00,,,0.00,weatherlink.com 1.10,2013-08-04 19:23:00,
2013-08-04 13:38:00,91.1,54.0,29.63,SSW,212,2.0,9.0,28,0.00,,,0.00,weatherlink.com 1.10,2013-08-04 19:38:00,
2013-08-04 13:53:00,92.0,55.0,29.62,SSW,200,3.0,9.0,28,0.00,,,0.00,weatherlink.com 1.10,2013-08-04 19:53:00,
2013-08-04 14:08:00,92.6,52.0,29.62,SW,228,0.0,5.0,25,0.00,,,0.00,weatherlink.com 1.10,2013-08-04 20:08:00,
2013-08-04 14:23:00,93.1,50.0,29.62,West,261,0.0,10.0,23,0.00,,,0.00,weatherlink.com 1.10,2013-08-04 20:23:00,
2013-08-04 14:38:00,94.0,54.0,29.62,SSW,193,2.0,5.0,26,0.00,,,0.00,weatherlink.com 1.10,2013-08-04 20:38:00,
2013-08-04 14:53:00,93.7,51.0,29.61,SW,225,0.0,10.0,23,0.00,,,0.00,weatherlink.com 1.10,2013-08-04 20:53:00,
2013-08-04 15:08:00,92.4,50.0,29.61,South,184,4.0,12.0,23,0.00,,,0.00,weatherlink.com 1.10,2013-08-04 21:08:00,
2013-08-04 15:23:00,91.8,50.0,29.61,SSW,198,3.0,11.0,24,0.00,,,0.00,weatherlink.com 1.10,2013-08-04 21:23:00,
2013-08-04 15:38:00,91.0,48.0,29.61,SSW,198,6.0,9.0,23,0.00,,,0.00,weatherlink.com 1.10,2013-08-04 21:38:00,
2013-08-04 15:53:00,89.8,47.0,29.60,SSW,193,7.0,15.0,23,0.00,,,0.00,weatherlink.com 1.10,2013-08-04 21:53:00,
2013-08-04 16:08:00,89.3,47.0,29.60,SSE,162,2.0,11.0,23,0.00,,,0.00,weatherlink.com 1.10,2013-08-04 22:08:00,
2013-08-04 16:23:00,89.5,46.0,29.59,SE,126,2.0,9.0,22,0.00,,,0.00,weatherlink.com 1.10,2013-08-04 22:23:00,
2013-08-04 16:38:00,89.4,47.0,29.59,SSE,165,0.0,9.0,23,0.00,,,0.00,weatherlink.com 1.10,2013-08-04 22:38:00,
2013-08-04 16:53:00,89.2,50.0,29.59,SSW,195,2.0,11.0,26,0.00,,,0.00,weatherlink.com 1.10,2013-08-04 22:53:00,
2013-08-04 17:08:00,89.0,48.0,29.58,South,169,8.0,12.0,24,0.00,,,0.00,weatherlink.com 1.10,2013-08-04 23:08:00,
2013-08-04 17:23:00,88.8,49.0,29.58,South,182,7.0,11.0,25,0.00,,,0.00,weatherlink.com 1.10,2013-08-04 23:23:00,
2013-08-04 17:38:00,88.6,47.0,29.58,SSW,201,6.0,10.0,24,0.00,,,0.00,weatherlink.com 1.10,2013-08-04 23:38:00,
2013-08-04 17:53:00,88.4,49.0,29.57,South,174,3.0,13.0,26,0.00,,,0.00,weatherlink.com 1.10,2013-08-04 23:53:00,
2013-08-04 18:08:00,88.1,50.0,29.57,SSE,165,2.0,9.0,27,0.00,,,0.00,weatherlink.com 1.10,2013-08-05 00:08:00,
2013-08-04 18:23:00,88.0,50.0,29.57,SSE,157,2.0,7.0,27,0.00,,,0.00,weatherlink.com 1.10,2013-08-05 00:23:00,
2013-08-04 18:38:00,88.1,49.0,29.57,SE,140,0.0,5.0,26,0.00,,,0.00,weatherlink.com 1.10,2013-08-05 00:38:00,
2013-08-04 18:53:00,87.8,48.0,29.58,South,170,0.0,4.0,25,0.00,,,0.00,weatherlink.com 1.10,2013-08-05 00:53:00,
2013-08-04 19:08:00,87.4,46.0,29.58,SSE,153,0.0,2.0,24,0.00,,,0.00,weatherlink.com 1.10,2013-08-05 01:08:00,
2013-08-04 19:23:00,87.0,46.0,29.59,SSE,167,0.0,0.0,24,0.00,,,0.00,weatherlink.com 1.10,2013-08-05 01:23:00,
2013-08-04 19:38:00,85.4,52.0,29.60,WNW,296,0.0,7.0,32,0.00,,,0.00,weatherlink.com 1.10,2013-08-05 01:38:00,
2013-08-04 19:53:00,83.4,53.0,29.61,WNW,290,0.0,2.0,35,0.00,,,0.00,weatherlink.com 1.10,2013-08-05 01:53:00,
2013-08-04 20:08:00,82.4,54.0,29.63,NW,313,5.0,26.0,37,0.00,,,0.00,weatherlink.com 1.10,2013-08-05 02:08:00,
2013-08-04 20:23:00,81.2,52.0,29.64,NW,316,2.0,15.0,37,0.00,,,0.00,weatherlink.com 1.10,2013-08-05 02:23:00,
2013-08-04 20:38:00,77.6,57.0,29.68,WNW,299,4.0,15.0,49,0.00,,,0.00,weatherlink.com 1.10,2013-08-05 02:38:00,
2013-08-04 20:53:00,73.7,59.0,29.70,WNW,285,10.0,20.0,61,0.00,,,0.00,weatherlink.com 1.10,2013-08-05 02:53:00,
2013-08-04 21:09:00,70.5,60.0,29.71,NNW,346,6.0,17.0,70,0.00,,,0.00,weatherlink.com 1.10,2013-08-05 03:09:00,
2013-08-04 21:24:00,69.4,60.0,29.72,North,355,3.0,16.0,71,0.00,,,0.00,weatherlink.com 1.10,2013-08-05 03:24:00,
2013-08-04 21:39:00,68.5,60.0,29.71,North,11,3.0,18.0,74,0.00,,,0.00,weatherlink.com 1.10,2013-08-05 03:39:00,
2013-08-04 21:53:00,68.7,59.0,29.70,NNE,19,8.0,12.0,70,0.00,,,0.00,weatherlink.com 1.10,2013-08-05 03:53:00,
2013-08-04 22:09:00,69.7,58.0,29.70,North,360,1.0,16.0,66,0.00,,,0.00,weatherlink.com 1.10,2013-08-05 04:09:00,
2013-08-04 22:24:00,71.2,56.0,29.69,NNE,18,0.0,16.0,59,0.00,,,0.00,weatherlink.com 1.10,2013-08-05 04:24:00,
2013-08-04 22:39:00,71.1,56.0,29.69,NW,313,4.0,8.0,60,0.00,,,0.00,weatherlink.com 1.10,2013-08-05 04:39:00,
2013-08-04 22:54:00,69.7,56.0,29.70,NW,319,4.0,10.0,62,0.00,,,0.00,weatherlink.com 1.10,2013-08-05 04:54:00,
2013-08-04 23:09:00,70.1,55.0,29.70,NNW,333,0.0,7.0,60,0.00,,,0.00,weatherlink.com 1.10,2013-08-05 05:09:00,
2013-08-04 23:24:00,69.4,58.0,29.70,NNE,29,0.0,3.0,67,0.00,,,0.00,weatherlink.com 1.10,2013-08-05 05:24:00,
2013-08-04 23:39:00,67.8,59.0,29.70,NW,311,0.0,0.0,74,0.00,,,0.00,weatherlink.com 1.10,2013-08-05 05:39:00,
2013-08-04 23:54:00,67.2,59.0,29.71,NNW,334,0.0,5.0,75,0.00,,,0.00,weatherlink.com 1.10,2013-08-05 05:54:00,